< Typhoon 202217 2022 Season Typhoon 202219 >
Typhoon 202218 (ROKE)
General InformationTrack Information on Google MapsDetailed Wind InformationForecast History on Google MapsAccess Analytics MapList of All Images || NewsDisaster Info.JMA Disaster Info. XMLWeblogTrackbackTyphoon FrontTwiphoonTyphoon Now!Typhoon ImaginationResourceGoogle EarthGE AnimationAtom FeedGeoJSON
Detalied Best Track (Time Zone = UTC)
Year Month Day Hour Lat. Long. Pressure (hPa) Wind (kt) Class Image Chart
2022 9 28 00 21.1 132.5 1004 30 2 Image Chart
2022 9 28 03 21.3 132.2 1004 30 2 Image Chart
2022 9 28 06 21.4 131.9 1002 30 2 Image Chart
2022 9 28 09 22.2 131.9 1002 30 2 Image Chart
2022 9 28 12 23.0 131.7 1000 35 3 Image Chart
2022 9 28 15 23.4 131.2 1000 35 3 Image Chart
2022 9 28 18 23.8 131.7 998 40 3 Image Chart
2022 9 28 21 24.5 131.7 998 40 3 Image Chart
2022 9 29 00 24.9 131.6 994 45 3 Image Chart
2022 9 29 03 25.3 131.8 994 45 3 Image Chart
2022 9 29 06 25.7 132.0 990 55 4 Image Chart
2022 9 29 09 26.1 132.6 990 55 4 Image Chart
2022 9 29 12 26.6 133.1 980 65 5 Image Chart
2022 9 29 15 27.0 133.7 980 65 5 Image Chart
2022 9 29 18 27.6 134.3 975 70 5 Image Chart
2022 9 29 21 27.9 135.1 975 70 5 Image Chart
2022 9 30 00 28.2 136.0 975 70 5 Image Chart
2022 9 30 03 28.6 137.0 975 70 5 Image Chart
2022 9 30 06 28.9 138.0 980 65 5 Image Chart
2022 9 30 09 29.6 139.2 985 60 4 Image Chart
2022 9 30 12 30.2 140.3 990 55 4 Image Chart
2022 9 30 15 30.6 141.3 990 55 4 Image Chart
2022 9 30 18 31.1 142.7 992 50 4 Image Chart
2022 9 30 21 31.3 143.6 992 50 4 Image Chart
2022 10 1 00 31.7 144.4 992 50 4 Image Chart
2022 10 1 03 32.3 145.4 992 50 4 Image Chart
2022 10 1 06 33.0 146.6 992 50 4 Image Chart
2022 10 1 09 33.6 147.6 992 50 4 Image Chart
2022 10 1 12 34.0 148.3 992 50 4 Image Chart
2022 10 1 15 34.7 149.1 992 50 4 Image Chart
2022 10 1 18 35.0 150.0 992 50 6 Image Chart
Japan Meteorological Agency Best Track Data | Correction Date : 2022-10-01
< Typhoon 202217 2022 Season Typhoon 202219 >

Help